This is the latest recevied weather packets stored in our database for station/object KN6CRX. If no packets are shown the sender has not sent any weather packets the latest 10 day(s).
| Time | Temp. | Humidity | Pressure | Rain* | Wind** | Luminosity | Snow |
|---|---|---|---|---|---|---|---|
| 1787619452 | 20° C | 59% | 1022.5 hPa | 0 mm | - | 74 W/m² | - |
| 1787619146 | 20° C | 61% | 1022.6 hPa | 0 mm | - | 80 W/m² | - |
| 1787618846 | 19.44° C | 64% | 1022.6 hPa | 0 mm | - | 85 W/m² | - |
| 1787618544 | 18.89° C | 71% | 1022.8 hPa | 0 mm | - | 90 W/m² | - |
| 1787618240 | 18.89° C | 72% | 1023.1 hPa | 0 mm | - | 98 W/m² | - |
| 1787617936 | 18.33° C | 75% | 1023 hPa | 0 mm | - | 105 W/m² | - |
| 1787617635 | 18.33° C | 76% | 1023.1 hPa | 0 mm | - | 106 W/m² | - |
| 1787617330 | 18.33° C | 74% | 1023.2 hPa | 0 mm | - | 110 W/m² | - |
| 1787617029 | 18.33° C | 74% | 1023 hPa | 7.87 mm | - | 104 W/m² | - |
| 1787616724 | 19.44° C | 69% | 1023 hPa | 7.87 mm | - | 102 W/m² | - |
| 1787616423 | 20° C | 65% | 1023.2 hPa | 0 mm | - | 60 W/m² | - |
| 1787616122 | 20° C | 62% | 1023.2 hPa | 1.27 mm | - | 32 W/m² | - |
| 1787615821 | 20° C | 60% | 1023.3 hPa | 1.27 mm | - | 36 W/m² | - |
| 1787615517 | 20.56° C | 56% | 1023 hPa | 0 mm | - | 36 W/m² | - |
| 1787615213 | 20.56° C | 55% | 1022.4 hPa | 0 mm | - | 28 W/m² | - |
| 1787614908 | 20.56° C | 57% | 1022.5 hPa | 0 mm | - | 19 W/m² | - |
| 1787614604 | 21.67° C | 53% | 1022.9 hPa | 0 mm | - | 19 W/m² | - |
| 1787614301 | 23.89° C | 45% | 1023.1 hPa | 0 mm | - | 16 W/m² | - |
| 1787613997 | 23.89° C | 40% | 1022.8 hPa | 0 mm | - | 12 W/m² | - |
| 1787613694 | 23.89° C | 41% | 1022.1 hPa | 0 mm | - | 10 W/m² | - |
| 1787613393 | 25° C | 40% | 1022 hPa | 0 mm | - | 17 W/m² | - |
| 1787613090 | 25° C | 36% | 1022 hPa | 0 mm | - | 15 W/m² | - |
| 1787612787 | 25° C | 37% | 1021.8 hPa | 0 mm | - | 19 W/m² | - |
| 1787612482 | 25.56° C | 40% | 1021.6 hPa | 0 mm | - | 35 W/m² | - |
| 1787612178 | 26.67° C | 35% | 1021.7 hPa | 0 mm | - | 48 W/m² | - |
* Rain latest hour (hover to see other rain measurements)
** Current wind speed in m/s (hover to see current wind gust speed)